Time;durP1;ratioP1;P1;durP2;ratioP2;P2;SDS_P1;SDS_P2;PMS_P1;PMS_P2;Temp;Humidity;BMP_temperature;BMP_pressure;BME280_temperature;BME280_humidity;BME280_pressure;Samples;Min_cycle;Max_cycle;Signal;HPM_P1;HPM_P2
2020/12/13 00:02:08;;;;;;;1.40;1.17;;;9.00;99.90;;;;;;5093202;28;20028;-73
2020/12/13 00:04:35;;;;;;;1.55;1.33;;;8.90;99.90;;;;;;5101390;28;20059;-74
2020/12/13 00:07:03;;;;;;;2.20;1.45;;;8.80;99.90;;;;;;5113283;28;20479;-75
2020/12/13 00:09:30;;;;;;;2.00;1.40;;;8.80;99.90;;;;;;5098103;28;20048;-74
2020/12/13 00:11:59;;;;;;;1.63;1.50;;;8.70;99.90;;;;;;5092884;28;20028;-76
2020/12/13 00:14:33;;;;;;;5.22;3.72;;;8.80;99.90;;;;;;5104710;28;20027;-76
2020/12/13 00:17:00;;;;;;;1.48;1.38;;;8.70;99.90;;;;;;5113179;28;20034;-75
2020/12/13 00:19:27;;;;;;;2.58;1.70;;;8.70;99.90;;;;;;5112784;28;20038;-73
2020/12/13 00:21:56;;;;;;;1.60;1.50;;;8.70;99.90;;;;;;5113617;28;20019;-74
2020/12/13 00:24:25;;;;;;;1.77;1.67;;;8.70;99.90;;;;;;5101250;28;20040;-74
2020/12/13 00:26:52;;;;;;;1.58;1.48;;;8.70;99.90;;;;;;5092996;28;20024;-73
2020/12/13 00:29:19;;;;;;;2.33;1.77;;;8.60;99.90;;;;;;5100862;28;20051;-74
2020/12/13 00:31:46;;;;;;;2.03;1.83;;;8.60;99.90;;;;;;5112734;28;20024;-74
2020/12/13 00:34:13;;;;;;;1.80;1.70;;;8.60;99.90;;;;;;5109836;28;20039;-74
2020/12/13 00:36:40;;;;;;;1.98;1.65;;;8.60;99.90;;;;;;5113193;28;20019;-73
2020/12/13 00:39:07;;;;;;;3.60;1.90;;;8.50;99.90;;;;;;5111243;28;20036;-74
2020/12/13 00:41:34;;;;;;;1.92;1.73;;;8.50;99.90;;;;;;5112919;28;20360;-73
2020/12/13 00:44:01;;;;;;;2.10;1.90;;;8.50;99.90;;;;;;5108865;28;20131;-75
2020/12/13 00:46:28;;;;;;;1.88;1.77;;;8.60;99.90;;;;;;5092141;28;20020;-75
2020/12/13 00:48:55;;;;;;;2.05;1.85;;;8.60;99.90;;;;;;5092124;28;20032;-74
2020/12/13 00:51:26;;;;;;;2.40;2.10;;;8.60;99.90;;;;;;5092712;28;20070;-74
2020/12/13 00:53:53;;;;;;;2.13;1.88;;;8.60;99.90;;;;;;5092402;28;20055;-74
2020/12/13 00:56:20;;;;;;;2.72;1.70;;;8.50;99.90;;;;;;5092485;28;20035;-76
2020/12/13 00:58:47;;;;;;;2.58;2.38;;;8.50;99.90;;;;;;5093006;28;20392;-73
2020/12/13 01:01:15;;;;;;;2.30;2.00;;;8.50;99.90;;;;;;5112893;28;20039;-73
2020/12/13 01:03:42;;;;;;;2.30;2.10;;;8.50;99.90;;;;;;5112127;28;20023;-74
2020/12/13 01:06:09;;;;;;;2.55;2.35;;;8.50;99.90;;;;;;5110387;28;20688;-74
2020/12/13 01:08:36;;;;;;;2.47;1.88;;;8.50;99.90;;;;;;5112200;28;20051;-73
2020/12/13 01:11:03;;;;;;;2.05;1.85;;;8.50;99.90;;;;;;5091573;28;20043;-72
2020/12/13 01:13:30;;;;;;;2.47;1.90;;;8.40;99.90;;;;;;5091893;28;20036;-73
2020/12/13 01:15:57;;;;;;;2.85;1.83;;;8.50;99.90;;;;;;5108958;28;20090;-74
2020/12/13 01:18:23;;;;;;;2.05;1.85;;;8.50;99.90;;;;;;5112407;28;20034;-72
2020/12/13 01:20:50;;;;;;;2.22;1.95;;;8.50;99.90;;;;;;5098696;28;20022;-72
2020/12/13 01:23:17;;;;;;;2.65;1.67;;;8.50;99.90;;;;;;5112660;28;20020;-72
2020/12/13 01:25:47;;;;;;;2.35;1.88;;;8.50;99.90;;;;;;5110323;28;20031;-73
2020/12/13 01:28:14;;;;;;;2.28;1.95;;;8.50;99.90;;;;;;5112285;28;20043;-73
2020/12/13 01:30:41;;;;;;;1.70;1.60;;;8.50;99.90;;;;;;5099225;28;20028;-75
2020/12/13 01:33:08;;;;;;;1.42;1.33;;;8.50;99.90;;;;;;5090761;28;20048;-72
2020/12/13 01:35:35;;;;;;;2.47;2.10;;;8.60;99.90;;;;;;5101273;28;20027;-72
2020/12/13 01:38:02;;;;;;;4.03;1.75;;;8.60;99.90;;;;;;5104974;28;20435;-74
2020/12/13 01:40:29;;;;;;;1.48;1.38;;;8.60;99.90;;;;;;5103402;28;20032;-74
2020/12/13 01:42:55;;;;;;;2.20;2.00;;;8.60;99.90;;;;;;5092653;28;20028;-73
2020/12/13 01:45:22;;;;;;;2.17;1.92;;;8.60;99.90;;;;;;5098601;28;20028;-75
2020/12/13 01:47:51;;;;;;;2.78;2.00;;;8.60;99.90;;;;;;5092459;28;20043;-73
2020/12/13 01:53:15;;;;;;;2.25;1.83;;;8.60;99.90;;;;;;5092331;28;20507;-72
2020/12/13 01:55:45;;;;;;;73.03;42.75;;;8.60;99.90;;;;;;5094953;28;20031;-73
2020/12/13 01:58:27;;;;;;;33.13;13.93;;;8.70;99.90;;;;;;5098310;28;20048;-72
2020/12/13 02:00:55;;;;;;;;;;;8.70;99.90;;;;;;5098572;28;20518;-75
2020/12/13 02:03:24;;;;;;;119.88;107.07;;;8.70;99.90;;;;;;5110148;28;19911;-74
2020/12/13 02:06:01;;;;;;;25.00;19.20;;;8.60;99.90;;;;;;5090994;28;20054;-74
2020/12/13 02:08:38;;;;;;;26.33;24.00;;;8.70;99.90;;;;;;5107525;28;20467;-74
2020/12/13 02:11:09;;;;;;;10.40;9.48;;;8.70;99.90;;;;;;5093060;28;20032;-74
2020/12/13 02:13:37;;;;;;;3.80;3.50;;;8.80;99.90;;;;;;5109820;28;20027;-74
2020/12/13 02:16:07;;;;;;;3.97;3.58;;;8.80;99.90;;;;;;5102620;28;20146;-74
2020/12/13 02:18:35;;;;;;;2.20;2.00;;;8.90;99.90;;;;;;5111332;28;20035;-74
2020/12/13 02:21:03;;;;;;;32.25;29.27;;;8.90;99.90;;;;;;5102771;28;20020;-74
2020/12/13 02:23:30;;;;;;;50.80;45.88;;;8.90;99.90;;;;;;5093508;28;20028;-73
2020/12/13 02:25:57;;;;;;;6.43;5.93;;;8.90;99.90;;;;;;5111240;28;20371;-74
2020/12/13 02:28:24;;;;;;;3.35;3.05;;;8.90;99.90;;;;;;5110704;28;20032;-75
2020/12/13 02:30:52;;;;;;;2.70;2.40;;;8.80;99.90;;;;;;5111172;28;20024;-74
2020/12/13 02:33:19;;;;;;;1.38;1.27;;;8.80;99.90;;;;;;5107909;28;20039;-75
2020/12/13 02:35:46;;;;;;;2.55;2.15;;;8.80;99.90;;;;;;5093190;28;20036;-74
2020/12/13 02:38:13;;;;;;;4.35;2.42;;;8.90;99.90;;;;;;5095901;28;20032;-73
2020/12/13 02:40:40;;;;;;;2.10;1.75;;;8.90;99.90;;;;;;5097242;28;20028;-73
2020/12/13 02:43:07;;;;;;;2.47;1.73;;;8.90;99.90;;;;;;5109668;28;20386;-73
2020/12/13 02:45:34;;;;;;;3.35;2.63;;;8.90;99.90;;;;;;5095703;28;20032;-74
2020/12/13 02:48:01;;;;;;;4.45;2.58;;;8.90;99.90;;;;;;5091042;28;20384;-73
2020/12/13 02:50:28;;;;;;;2.20;2.00;;;8.80;99.90;;;;;;5090489;28;20417;-74
2020/12/13 02:52:55;;;;;;;1.52;0.90;;;8.90;99.90;;;;;;5091016;28;20024;-74
2020/12/13 02:55:21;;;;;;;2.00;1.30;;;8.90;99.90;;;;;;5108600;28;20028;-73
2020/12/13 02:57:48;;;;;;;1.63;1.45;;;8.90;99.90;;;;;;5110724;28;20478;-74
2020/12/13 03:00:15;;;;;;;2.05;1.40;;;8.90;99.90;;;;;;5102000;28;20035;-71
2020/12/13 03:02:42;;;;;;;1.40;1.30;;;8.90;99.90;;;;;;5099438;28;20020;-71
2020/12/13 03:05:09;;;;;;;2.78;1.67;;;8.80;99.90;;;;;;5110659;28;20050;-72
2020/12/13 03:07:36;;;;;;;1.10;1.00;;;8.80;99.90;;;;;;5110784;28;20325;-71
2020/12/13 03:10:04;;;;;;;1.13;1.00;;;8.80;99.90;;;;;;5111000;28;20475;-71
2020/12/13 03:12:30;;;;;;;1.75;1.10;;;8.70;99.90;;;;;;5110735;28;20383;-72
2020/12/13 03:14:58;;;;;;;1.73;1.48;;;8.80;99.90;;;;;;5111020;28;20086;-71
2020/12/13 03:17:24;;;;;;;1.15;1.02;;;8.70;99.90;;;;;;5114531;28;20031;-72
2020/12/13 03:19:51;;;;;;;2.65;1.90;;;8.70;99.90;;;;;;5096455;28;20141;-72
2020/12/13 03:22:18;;;;;;;4.03;1.40;;;8.60;99.90;;;;;;5096697;28;20343;-72
2020/12/13 03:24:45;;;;;;;1.02;0.93;;;8.60;99.90;;;;;;5102674;28;20030;-71
2020/12/13 03:27:12;;;;;;;2.20;1.60;;;8.50;99.90;;;;;;5114662;28;20027;-72
2020/12/13 03:29:39;;;;;;;7.28;4.32;;;8.50;99.90;;;;;;5094697;28;20047;-71
2020/12/13 03:32:06;;;;;;;15.40;8.60;;;8.40;99.90;;;;;;5094851;28;20490;-71
2020/12/13 03:34:33;;;;;;;20.63;11.23;;;8.30;99.90;;;;;;5093670;28;20028;-71
2020/12/13 03:37:00;;;;;;;5.85;2.70;;;8.20;99.90;;;;;;5112235;28;20040;-71
2020/12/13 03:39:26;;;;;;;1.88;1.10;;;8.10;99.90;;;;;;5105800;28;20495;-71
2020/12/13 03:41:53;;;;;;;1.73;1.00;;;8.30;99.90;;;;;;5093744;28;20110;-71
2020/12/13 03:44:20;;;;;;;0.70;0.70;;;8.30;99.90;;;;;;5114045;28;20030;-71
2020/12/13 03:46:48;;;;;;;1.25;0.70;;;8.50;99.90;;;;;;5112338;28;20027;-71
2020/12/13 03:49:15;;;;;;;1.25;0.80;;;8.60;99.90;;;;;;5113771;28;20036;-71
2020/12/13 03:51:42;;;;;;;0.77;0.75;;;8.60;99.90;;;;;;5101686;28;20546;-71
2020/12/13 03:54:09;;;;;;;1.77;0.80;;;8.60;99.90;;;;;;5094482;28;20039;-71
2020/12/13 03:56:36;;;;;;;1.92;1.10;;;8.60;99.90;;;;;;5102131;28;20057;-71
2020/12/13 03:59:03;;;;;;;2.17;0.95;;;8.60;99.90;;;;;;5113768;28;20073;-71
2020/12/13 04:01:30;;;;;;;2.28;1.40;;;8.60;99.90;;;;;;5105915;28;20032;-71
2020/12/13 04:03:57;;;;;;;1.35;1.02;;;8.70;99.90;;;;;;5094101;28;20043;-71
2020/12/13 04:06:24;;;;;;;1.73;1.50;;;8.60;99.90;;;;;;5097446;28;20019;-71
2020/12/13 04:08:51;;;;;;;1.10;0.80;;;8.60;99.90;;;;;;5113659;28;20040;-70
2020/12/13 04:11:18;;;;;;;1.92;1.00;;;8.50;99.90;;;;;;5098408;28;20043;-71
2020/12/13 04:13:45;;;;;;;1.15;0.90;;;8.50;99.90;;;;;;5093265;28;20032;-70
2020/12/13 04:16:12;;;;;;;3.30;0.80;;;8.60;99.90;;;;;;5094361;28;20024;-70
2020/12/13 04:18:40;;;;;;;2.70;0.80;;;8.70;99.90;;;;;;5095512;28;20032;-71
2020/12/13 04:21:07;;;;;;;1.73;1.00;;;8.80;99.90;;;;;;5111231;28;20058;-71
2020/12/13 04:23:34;;;;;;;1.40;0.80;;;9.00;99.90;;;;;;5113473;28;20036;-70
2020/12/13 04:26:01;;;;;;;1.63;0.80;;;9.20;99.90;;;;;;5113287;28;20372;-71
2020/12/13 04:28:28;;;;;;;1.23;0.70;;;9.20;99.90;;;;;;5105696;28;20044;-71
2020/12/13 04:30:55;;;;;;;0.70;0.60;;;9.10;99.90;;;;;;5100101;28;20023;-71
2020/12/13 04:33:22;;;;;;;0.90;0.70;;;9.20;99.90;;;;;;5112698;28;20485;-72
2020/12/13 04:35:49;;;;;;;1.60;0.70;;;9.30;99.90;;;;;;5113097;28;20375;-70
2020/12/13 04:38:16;;;;;;;0.55;0.50;;;9.30;99.90;;;;;;5097803;28;20039;-71
2020/12/13 04:40:42;;;;;;;0.75;0.50;;;9.30;99.90;;;;;;5107477;28;20031;-71
2020/12/13 04:43:09;;;;;;;1.50;0.88;;;9.20;99.90;;;;;;5112810;28;20375;-72
2020/12/13 04:45:36;;;;;;;0.80;0.57;;;9.20;99.90;;;;;;5105310;28;20020;-72
2020/12/13 04:48:08;;;;;;;3.25;1.70;;;9.20;99.90;;;;;;5092391;28;20040;-71
2020/12/13 04:50:37;;;;;;;1.92;1.35;;;9.20;99.90;;;;;;5110307;28;20027;-71
2020/12/13 04:53:06;;;;;;;6.25;2.42;;;9.10;99.90;;;;;;5111076;28;20039;-72
2020/12/13 04:55:55;;;;;;;1.13;0.57;;;9.10;99.90;;;;;;5112795;28;20032;-71
2020/12/13 04:58:24;;;;;;;1.77;0.98;;;9.00;99.90;;;;;;5094998;28;20044;-70
2020/12/13 05:00:59;;;;;;;1.45;0.90;;;8.90;99.90;;;;;;5112458;28;20448;-71
2020/12/13 05:03:27;;;;;;;2.63;1.50;;;9.00;99.90;;;;;;5109641;27;20491;-71
2020/12/13 05:06:03;;;;;;;1.90;1.55;;;9.00;99.90;;;;;;5112275;28;20035;-71
2020/12/13 05:08:31;;;;;;;2.33;1.40;;;9.00;99.90;;;;;;5099028;28;20496;-71
2020/12/13 05:10:58;;;;;;;1.98;1.40;;;8.90;99.90;;;;;;5095041;28;20027;-71
2020/12/13 05:13:25;;;;;;;3.20;1.95;;;9.00;99.90;;;;;;5110790;28;20024;-71
2020/12/13 05:15:52;;;;;;;2.00;1.10;;;9.00;99.90;;;;;;5112497;28;20106;-71
2020/12/13 05:18:20;;;;;;;3.80;1.88;;;9.00;99.90;;;;;;5103384;28;20039;-71
2020/12/13 05:20:47;;;;;;;8.73;4.78;;;9.00;99.90;;;;;;5091368;28;20464;-71
2020/12/13 05:23:14;;;;;;;2.10;1.40;;;9.00;99.90;;;;;;5110655;28;20448;-71
2020/12/13 05:25:41;;;;;;;7.28;3.28;;;9.00;99.90;;;;;;5108993;28;20050;-71
2020/12/13 05:28:14;;;;;;;1.45;0.95;;;9.00;99.90;;;;;;5107530;28;20063;-71
2020/12/13 05:30:44;;;;;;;3.63;1.20;;;9.10;99.90;;;;;;5091751;28;20039;-71
2020/12/13 05:33:29;;;;;;;8.15;2.92;;;9.10;99.90;;;;;;5091777;28;20040;-72
2020/12/13 05:36:02;;;;;;;4.38;2.30;;;9.20;99.90;;;;;;5092069;28;20044;-71
2020/12/13 05:38:34;;;;;;;6.57;3.20;;;9.10;99.90;;;;;;5096568;28;20742;-71
2020/12/13 05:41:01;;;;;;;3.22;1.75;;;9.20;99.90;;;;;;5112218;28;20030;-72
2020/12/13 05:43:32;;;;;;;5.90;3.28;;;9.10;99.90;;;;;;5106361;28;20039;-72
2020/12/13 05:53:36;;;;;;;1.67;1.08;;;9.30;99.90;;;;;;5105920;28;20028;-71
2020/12/13 05:56:06;;;;;;;0.98;0.75;;;9.30;99.90;;;;;;5091443;28;20045;-72
2020/12/13 05:58:34;;;;;;;1.58;1.02;;;9.30;99.90;;;;;;5092763;28;20036;-71
2020/12/13 06:01:04;;;;;;;2.38;1.00;;;9.30;99.90;;;;;;5111275;28;20032;-70
2020/12/13 06:03:34;;;;;;;5.07;1.25;;;9.40;99.90;;;;;;5108706;28;20763;-71
2020/12/13 06:06:09;;;;;;;1.40;1.00;;;9.40;99.90;;;;;;5088785;28;20036;-71
2020/12/13 06:08:48;;;;;;;1.10;1.00;;;9.40;99.90;;;;;;5092206;28;20039;-71
2020/12/13 06:11:19;;;;;;;1.92;1.00;;;9.40;99.90;;;;;;5091296;28;20475;-71
2020/12/13 06:13:53;;;;;;;0.95;0.80;;;9.40;99.90;;;;;;5094680;28;20027;-71
2020/12/13 06:16:22;;;;;;;1.33;0.90;;;9.30;99.90;;;;;;5110626;28;20042;-70
2020/12/13 06:18:49;;;;;;;1.77;1.05;;;9.40;99.90;;;;;;5107303;28;20028;-69
2020/12/13 06:21:17;;;;;;;1.17;0.80;;;9.30;99.90;;;;;;5103493;28;20429;-72
2020/12/13 06:23:47;;;;;;;1.90;0.85;;;9.30;99.90;;;;;;5093341;28;20119;-70
2020/12/13 06:26:17;;;;;;;4.78;2.90;;;9.40;99.70;;;;;;5111470;28;20031;-71
2020/12/13 06:28:45;;;;;;;2.10;1.23;;;9.30;99.90;;;;;;5109551;28;20047;-72
2020/12/13 06:31:16;;;;;;;43.28;21.75;;;9.10;99.90;;;;;;5111369;28;20020;-72
2020/12/13 06:33:44;;;;;;;3.30;1.88;;;9.10;99.90;;;;;;5109705;28;20475;-72
2020/12/13 06:36:13;;;;;;;1.63;0.90;;;9.10;99.90;;;;;;5090615;28;20024;-70
2020/12/13 06:38:40;;;;;;;1.40;1.02;;;9.10;99.90;;;;;;5091095;28;20487;-72
2020/12/13 06:41:12;;;;;;;1.23;0.90;;;9.10;99.90;;;;;;5109430;28;20036;-72
2020/12/13 06:43:57;;;;;;;2.55;1.15;;;9.30;99.90;;;;;;5110832;28;20031;-71
2020/12/13 06:46:26;;;;;;;1.20;0.80;;;9.30;99.90;;;;;;5090496;28;20039;-71
2020/12/13 06:48:54;;;;;;;3.20;1.33;;;9.40;99.80;;;;;;5091655;28;20472;-71
2020/12/13 06:51:34;;;;;;;1.60;1.02;;;9.40;99.90;;;;;;5093627;28;20035;-72
2020/12/13 06:54:03;;;;;;;1.05;0.80;;;9.30;99.90;;;;;;5109703;28;20113;-72
2020/12/13 06:56:31;;;;;;;1.48;1.10;;;9.30;99.90;;;;;;5113393;28;20027;-71
2020/12/13 06:59:02;;;;;;;2.67;1.00;;;9.30;99.90;;;;;;5098331;28;20051;-72
2020/12/13 07:01:34;;;;;;;0.88;0.70;;;9.30;99.90;;;;;;5095771;28;20384;-72
2020/12/13 07:04:31;;;;;;;1.48;0.80;;;9.30;99.90;;;;;;5110007;28;20031;-72
2020/12/13 07:07:07;;;;;;;1.48;0.95;;;9.20;99.90;;;;;;5114915;28;20031;-71
2020/12/13 07:09:34;;;;;;;3.50;1.95;;;9.20;99.90;;;;;;5114044;28;20046;-70
2020/12/13 07:12:03;;;;;;;53.95;25.63;;;9.20;99.90;;;;;;5094770;28;20468;-71
2020/12/13 07:14:33;;;;;;;4.53;2.92;;;9.10;99.90;;;;;;5093558;28;20388;-71
2020/12/13 07:17:13;;;;;;;1.40;0.80;;;9.10;99.90;;;;;;5112083;28;20031;-71
2020/12/13 07:19:40;;;;;;;2.80;1.25;;;9.00;99.90;;;;;;5114207;28;20046;-70
2020/12/13 07:22:09;;;;;;;1.27;0.85;;;8.90;99.90;;;;;;5104000;28;20043;-71
2020/12/13 07:24:36;;;;;;;2.42;1.58;;;8.90;99.90;;;;;;5114799;28;20024;-70
2020/12/13 07:27:04;;;;;;;10.38;7.03;;;8.80;99.90;;;;;;5096082;28;20047;-70
2020/12/13 07:29:32;;;;;;;8.23;5.10;;;8.80;99.90;;;;;;5094196;28;20051;-70
2020/12/13 07:32:01;;;;;;;1.52;0.82;;;8.80;99.90;;;;;;5093495;28;20036;-70
2020/12/13 07:34:28;;;;;;;1.67;0.80;;;8.80;99.90;;;;;;5094095;28;20035;-70
2020/12/13 07:36:55;;;;;;;0.90;0.57;;;8.80;99.90;;;;;;5109663;28;20068;-70
2020/12/13 07:39:23;;;;;;;1.00;0.60;;;8.80;99.90;;;;;;5114399;28;20027;-70
2020/12/13 07:41:50;;;;;;;1.40;0.82;;;8.90;99.90;;;;;;5112290;28;20034;-70
2020/12/13 07:44:18;;;;;;;1.00;0.65;;;8.80;99.90;;;;;;5113045;28;20055;-70
2020/12/13 07:46:46;;;;;;;1.05;0.60;;;8.80;99.90;;;;;;5111392;28;20024;-75
2020/12/13 07:49:18;;;;;;;1.17;0.70;;;8.90;99.90;;;;;;5111684;28;20415;-73
2020/12/13 07:51:50;;;;;;;1.00;0.70;;;8.90;99.90;;;;;;5110539;28;20020;-73
2020/12/13 07:54:26;;;;;;;1.38;0.75;;;8.90;99.90;;;;;;5099878;28;20054;-72
2020/12/13 07:56:58;;;;;;;0.85;0.80;;;8.90;99.90;;;;;;5096601;28;20032;-74
2020/12/13 07:59:28;;;;;;;1.13;0.80;;;8.90;99.90;;;;;;5113158;28;20048;-75
2020/12/13 08:01:57;;;;;;;1.92;0.85;;;8.80;99.90;;;;;;5112372;28;20022;-75
2020/12/13 08:04:32;;;;;;;0.82;0.70;;;8.80;99.90;;;;;;5113392;28;20577;-74
2020/12/13 08:07:01;;;;;;;1.42;0.85;;;8.90;99.90;;;;;;5113357;28;20028;-74
2020/12/13 08:09:28;;;;;;;1.33;0.82;;;8.80;99.90;;;;;;5113330;28;20031;-73
2020/12/13 08:11:55;;;;;;;6.47;2.42;;;8.60;99.90;;;;;;5113449;28;20372;-74
2020/12/13 08:14:24;;;;;;;23.77;10.55;;;8.50;99.90;;;;;;5113221;28;20028;-73
2020/12/13 08:16:55;;;;;;;2.40;1.40;;;8.40;99.90;;;;;;5113424;28;20047;-73
2020/12/13 08:19:52;;;;;;;1.23;0.88;;;8.40;99.90;;;;;;5113292;28;20020;-73
2020/12/13 08:22:25;;;;;;;1.35;0.90;;;8.40;99.90;;;;;;5112776;28;20019;-74
2020/12/13 08:25:01;;;;;;;4.65;2.42;;;8.40;99.90;;;;;;5113265;28;20044;-76
2020/12/13 08:27:36;;;;;;;0.98;0.75;;;8.40;99.90;;;;;;5113141;28;20023;-74
2020/12/13 08:30:06;;;;;;;1.67;0.90;;;8.40;99.90;;;;;;5112195;28;20043;-75
2020/12/13 08:32:34;;;;;;;5.15;1.90;;;8.40;99.90;;;;;;5111602;28;20431;-76
2020/12/13 08:35:13;;;;;;;2.20;0.98;;;8.30;99.90;;;;;;5113213;28;20103;-74
2020/12/13 08:37:41;;;;;;;1.33;0.50;;;8.40;99.90;;;;;;5112617;28;20035;-76
2020/12/13 08:40:09;;;;;;;0.68;0.40;;;8.40;99.90;;;;;;5112883;28;20035;-76
2020/12/13 08:42:36;;;;;;;1.58;0.80;;;8.50;99.90;;;;;;5112622;28;20039;-74
2020/12/13 08:45:04;;;;;;;6.03;2.25;;;8.50;99.90;;;;;;5112511;28;20043;-75
2020/12/13 08:47:32;;;;;;;5.65;2.80;;;8.40;99.90;;;;;;5110413;28;20028;-74
2020/12/13 08:49:59;;;;;;;2.70;1.13;;;8.40;99.90;;;;;;5110685;28;20051;-75
2020/12/13 08:52:32;;;;;;;11.48;4.53;;;8.40;99.90;;;;;;5109496;28;20036;-75
2020/12/13 08:55:05;;;;;;;1.92;0.77;;;8.40;99.90;;;;;;5112598;28;20023;-75
2020/12/13 08:57:36;;;;;;;0.63;0.50;;;8.40;99.90;;;;;;5111702;28;20039;-76
2020/12/13 09:00:10;;;;;;;1.08;0.60;;;8.50;99.90;;;;;;5112316;28;20164;-74
2020/12/13 09:02:37;;;;;;;1.15;0.85;;;8.50;99.90;;;;;;5112204;28;20024;-74
2020/12/13 09:05:08;;;;;;;0.60;0.40;;;8.50;99.90;;;;;;5112303;28;20028;-75
2020/12/13 09:07:35;;;;;;;0.70;0.40;;;8.60;99.90;;;;;;5112163;28;20400;-73
2020/12/13 09:10:12;;;;;;;1.73;0.60;;;8.70;99.90;;;;;;5111900;28;20284;-73
2020/12/13 09:12:41;;;;;;;1.08;0.75;;;8.70;99.90;;;;;;5111936;28;20020;-74
2020/12/13 09:15:12;;;;;;;0.50;0.50;;;8.80;99.90;;;;;;5112182;28;20058;-73
2020/12/13 09:17:40;;;;;;;0.50;0.50;;;8.70;99.90;;;;;;5111829;28;20024;-73
2020/12/13 09:20:08;;;;;;;0.73;0.50;;;8.60;99.90;;;;;;5112964;28;20032;-74
2020/12/13 09:22:35;;;;;;;1.40;0.57;;;8.60;99.90;;;;;;5112517;28;20023;-75
2020/12/13 09:25:02;;;;;;;0.85;0.50;;;8.60;99.90;;;;;;5111515;28;20030;-74
2020/12/13 09:27:29;;;;;;;0.85;0.50;;;8.80;99.90;;;;;;5112002;28;20029;-74
2020/12/13 09:29:56;;;;;;;0.30;0.30;;;8.80;99.90;;;;;;5111464;28;20039;-74
2020/12/13 09:32:23;;;;;;;1.77;0.70;;;8.70;99.90;;;;;;5111591;28;20054;-74
2020/12/13 09:34:50;;;;;;;1.60;0.60;;;8.70;99.90;;;;;;5111524;28;20024;-73
2020/12/13 09:37:19;;;;;;;0.40;0.40;;;8.80;99.90;;;;;;5111620;28;20022;-74
2020/12/13 09:39:46;;;;;;;0.82;0.40;;;8.80;99.90;;;;;;5111878;28;20387;-74
2020/12/13 09:42:16;;;;;;;0.50;0.40;;;8.80;99.90;;;;;;5111539;28;20027;-73
2020/12/13 09:44:47;;;;;;;0.73;0.35;;;8.90;99.90;;;;;;5111593;28;20040;-73
2020/12/13 09:47:14;;;;;;;0.50;0.35;;;8.90;99.90;;;;;;5111602;28;20023;-73
2020/12/13 09:49:41;;;;;;;0.47;0.22;;;9.00;99.90;;;;;;5111381;28;20035;-75
2020/12/13 09:52:08;;;;;;;0.50;0.40;;;9.00;99.90;;;;;;5111180;28;20023;-73
2020/12/13 09:54:35;;;;;;;1.90;1.23;;;9.00;99.90;;;;;;5111176;28;20344;-74
2020/12/13 09:57:02;;;;;;;0.50;0.38;;;9.00;99.90;;;;;;5111123;28;20016;-73
2020/12/13 09:59:28;;;;;;;0.43;0.30;;;9.10;99.90;;;;;;5111538;28;20410;-73
2020/12/13 10:01:55;;;;;;;0.50;0.50;;;9.10;99.90;;;;;;5111429;28;20028;-74
2020/12/13 10:04:23;;;;;;;1.45;0.63;;;9.00;99.90;;;;;;5111987;28;20134;-75
2020/12/13 10:09:19;;;;;;;1.30;0.68;;;8.90;99.90;;;;;;5111354;28;20403;-72
2020/12/13 10:11:46;;;;;;;1.70;0.38;;;8.90;99.90;;;;;;5111536;28;20019;-73
2020/12/13 10:14:14;;;;;;;0.45;0.30;;;9.00;99.90;;;;;;5111087;28;20032;-74
2020/12/13 10:16:43;;;;;;;0.65;0.35;;;9.00;99.90;;;;;;5110840;28;20042;-72
2020/12/13 10:19:10;;;;;;;0.30;0.30;;;9.10;99.90;;;;;;5111258;28;20379;-73
2020/12/13 10:21:38;;;;;;;1.13;0.22;;;9.20;99.90;;;;;;5111174;28;20054;-73
2020/12/13 10:24:06;;;;;;;0.30;0.30;;;9.20;99.90;;;;;;5111056;28;20339;-73
2020/12/13 10:26:37;;;;;;;0.40;0.35;;;9.20;99.90;;;;;;5113813;28;20407;-73
2020/12/13 10:29:06;;;;;;;0.50;0.30;;;9.30;99.90;;;;;;5114961;28;20028;-72
2020/12/13 10:31:36;;;;;;;0.95;0.70;;;9.30;99.90;;;;;;5115225;28;20035;-75
2020/12/13 10:34:07;;;;;;;0.93;0.70;;;9.40;99.90;;;;;;5115095;28;20039;-73
2020/12/13 10:36:38;;;;;;;2.15;1.77;;;9.40;99.90;;;;;;5114845;28;20020;-74
2020/12/13 10:39:07;;;;;;;4.25;2.92;;;9.50;99.90;;;;;;5112310;28;20028;-75
2020/12/13 10:41:34;;;;;;;3.28;2.97;;;9.50;99.90;;;;;;5094566;28;20039;-74
2020/12/13 10:44:01;;;;;;;7.38;4.47;;;9.50;99.90;;;;;;5095817;28;20038;-76
2020/12/13 10:46:28;;;;;;;6.35;5.40;;;9.50;99.90;;;;;;5109125;28;20043;-75
2020/12/13 10:48:56;;;;;;;7.60;6.28;;;9.50;99.90;;;;;;5114818;28;20039;-76
2020/12/13 10:51:23;;;;;;;7.68;6.57;;;9.50;99.90;;;;;;5099355;28;20039;-77
2020/12/13 10:53:50;;;;;;;13.15;6.47;;;9.60;99.90;;;;;;5107677;28;20023;-77
2020/12/13 10:56:17;;;;;;;8.23;5.13;;;9.60;99.90;;;;;;5102975;28;20349;-77
2020/12/13 10:58:45;;;;;;;9.05;6.22;;;9.60;99.90;;;;;;5100354;28;20592;-77
2020/12/13 11:01:13;;;;;;;8.80;5.75;;;9.60;99.90;;;;;;5112597;28;20051;-81
2020/12/13 11:03:40;;;;;;;8.52;5.22;;;9.60;99.90;;;;;;5110889;28;20035;-83
2020/12/13 11:06:11;;;;;;;8.07;5.30;;;9.60;99.90;;;;;;5116625;28;20131;-80
2020/12/13 11:08:38;;;;;;;6.15;4.72;;;9.70;99.90;;;;;;5115035;28;20020;-80
2020/12/13 11:11:06;;;;;;;7.65;4.60;;;9.70;99.90;;;;;;5114782;28;20042;-80
2020/12/13 11:13:34;;;;;;;7.78;5.22;;;9.80;99.90;;;;;;5112662;28;20031;-80
2020/12/13 11:16:01;;;;;;;7.82;5.35;;;9.80;99.90;;;;;;5114728;28;20113;-83
2020/12/13 11:18:31;;;;;;;7.63;4.63;;;9.80;99.90;;;;;;5114777;28;20027;-81
2020/12/13 11:20:58;;;;;;;11.18;5.68;;;9.90;99.90;;;;;;5114569;28;20344;-79
2020/12/13 11:23:25;;;;;;;5.30;4.00;;;9.90;99.90;;;;;;5114519;28;20035;-83
2020/12/13 11:25:52;;;;;;;6.65;4.15;;;9.90;99.90;;;;;;5114411;28;20042;-80
2020/12/13 11:28:19;;;;;;;5.28;3.72;;;9.90;99.90;;;;;;5114957;28;20023;-83
2020/12/13 11:30:46;;;;;;;4.53;3.30;;;9.90;99.90;;;;;;5114466;28;20035;-83
2020/12/13 11:33:13;;;;;;;4.78;3.58;;;10.00;99.90;;;;;;5114490;28;20032;-80
2020/12/13 11:35:40;;;;;;;4.75;3.28;;;10.10;99.90;;;;;;5114313;28;20514;-77
2020/12/13 11:38:07;;;;;;;3.80;2.92;;;10.10;99.90;;;;;;5112986;28;20034;-77
2020/12/13 11:40:34;;;;;;;3.60;3.03;;;10.10;99.90;;;;;;5114187;28;20030;-77
2020/12/13 11:43:01;;;;;;;4.65;2.58;;;10.10;99.90;;;;;;5114277;28;20027;-77
2020/12/13 11:45:28;;;;;;;8.38;2.70;;;10.20;99.90;;;;;;5113650;28;20377;-76
2020/12/13 11:47:58;;;;;;;4.75;2.25;;;10.30;99.90;;;;;;5113232;28;20414;-76
2020/12/13 11:50:25;;;;;;;3.88;2.22;;;10.30;99.90;;;;;;5110954;28;20475;-78
2020/12/13 11:52:52;;;;;;;3.60;2.70;;;10.30;99.90;;;;;;5111973;28;20035;-78
2020/12/13 11:55:19;;;;;;;3.70;2.80;;;10.30;99.90;;;;;;5114185;28;20034;-80
2020/12/13 11:57:46;;;;;;;6.72;2.97;;;10.30;99.90;;;;;;5113784;28;20031;-77
2020/12/13 12:00:13;;;;;;;3.40;2.85;;;10.30;99.90;;;;;;5112485;28;20039;-75
2020/12/13 12:02:41;;;;;;;5.55;3.38;;;10.30;99.90;;;;;;5113700;28;20016;-79
2020/12/13 12:05:08;;;;;;;3.60;2.88;;;10.30;99.90;;;;;;5113289;28;20040;-78
2020/12/13 12:07:35;;;;;;;4.15;2.83;;;10.30;99.90;;;;;;5113436;28;20027;-78
2020/12/13 12:10:02;;;;;;;4.05;3.03;;;10.40;99.90;;;;;;5113775;28;20031;-79
2020/12/13 12:12:29;;;;;;;3.22;2.42;;;10.40;99.90;;;;;;5113886;28;20035;-81
2020/12/13 12:14:56;;;;;;;2.75;2.47;;;10.40;99.90;;;;;;5113914;28;20028;-81
2020/12/13 12:17:23;;;;;;;4.63;2.55;;;10.40;99.90;;;;;;5113955;28;20035;-79
2020/12/13 12:19:52;;;;;;;2.75;2.20;;;10.40;99.90;;;;;;5113154;28;20051;-76
2020/12/13 12:22:19;;;;;;;3.67;2.50;;;10.50;99.90;;;;;;5112333;28;20058;-78
2020/12/13 12:24:46;;;;;;;3.53;2.42;;;10.50;99.90;;;;;;5095326;28;20063;-77
2020/12/13 12:27:13;;;;;;;4.75;2.72;;;10.50;99.90;;;;;;5092321;28;20028;-78
2020/12/13 12:29:41;;;;;;;3.53;2.63;;;10.50;99.90;;;;;;5094018;28;20043;-78
2020/12/13 12:32:08;;;;;;;2.90;2.30;;;10.50;99.90;;;;;;5092177;28;20043;-75
2020/12/13 12:34:35;;;;;;;3.10;2.40;;;10.50;99.90;;;;;;5106446;28;20091;-76
2020/12/13 12:37:02;;;;;;;2.20;2.00;;;10.50;99.90;;;;;;5102935;28;20035;-75
2020/12/13 12:39:29;;;;;;;2.33;1.95;;;10.50;99.90;;;;;;5097376;28;20032;-75
2020/12/13 12:41:55;;;;;;;3.40;2.25;;;10.50;99.90;;;;;;5092489;28;20028;-75
2020/12/13 12:44:22;;;;;;;2.53;2.33;;;10.50;99.90;;;;;;5097191;28;20027;-77
2020/12/13 12:46:49;;;;;;;4.18;2.33;;;10.50;99.90;;;;;;5112771;28;20016;-77
2020/12/13 12:49:16;;;;;;;3.45;2.40;;;10.50;99.90;;;;;;5107051;28;20042;-76
2020/12/13 12:51:43;;;;;;;1.92;1.73;;;10.50;99.90;;;;;;5092221;28;20028;-78
2020/12/13 12:54:13;;;;;;;2.03;1.67;;;10.50;99.90;;;;;;5101035;28;20036;-77
2020/12/13 12:56:43;;;;;;;1.67;1.52;;;10.50;99.90;;;;;;5112500;28;20032;-79
2020/12/13 12:59:19;;;;;;;2.47;1.70;;;10.50;99.90;;;;;;5111863;28;20492;-79
2020/12/13 13:01:49;;;;;;;2.33;1.60;;;10.50;99.90;;;;;;5106328;28;20039;-79
2020/12/13 13:04:20;;;;;;;1.67;1.38;;;10.50;99.90;;;;;;5089996;28;20039;-76
2020/12/13 13:07:13;;;;;;;2.58;1.60;;;10.40;99.90;;;;;;5102258;28;20051;-76
2020/12/13 13:09:53;;;;;;;2.22;1.27;;;10.40;99.90;;;;;;5107644;28;20040;-76
2020/12/13 13:12:20;;;;;;;1.48;1.17;;;10.40;99.90;;;;;;5110344;28;20043;-77
2020/12/13 13:14:47;;;;;;;3.20;1.58;;;10.40;99.90;;;;;;5111131;28;20040;-78
2020/12/13 13:17:26;;;;;;;1.85;1.35;;;10.40;99.90;;;;;;5098042;28;20031;-77